sensor_id;sensor_type;location;lat;lon;timestamp;temperature;humidity
26262;DHT22;13988;52.446;13.280;2024-03-25T00:01:59;5.50;99.90
26262;DHT22;13988;52.446;13.280;2024-03-25T00:04:25;5.50;99.90
26262;DHT22;13988;52.446;13.280;2024-03-25T00:06:50;5.60;99.90
26262;DHT22;13988;52.446;13.280;2024-03-25T00:09:16;5.60;99.90
26262;DHT22;13988;52.446;13.280;2024-03-25T00:11:42;5.60;99.90
26262;DHT22;13988;52.446;13.280;2024-03-25T00:14:08;5.60;99.90
26262;DHT22;13988;52.446;13.280;2024-03-25T00:16:34;5.60;99.90
26262;DHT22;13988;52.446;13.280;2024-03-25T00:19:00;5.50;99.90
26262;DHT22;13988;52.446;13.280;2024-03-25T00:21:26;5.60;99.90
26262;DHT22;13988;52.446;13.280;2024-03-25T00:23:51;5.50;99.90
26262;DHT22;13988;52.446;13.280;2024-03-25T00:26:17;5.50;99.90
26262;DHT22;13988;52.446;13.280;2024-03-25T00:28:43;5.40;99.90
26262;DHT22;13988;52.446;13.280;2024-03-25T00:31:09;5.50;99.90
26262;DHT22;13988;52.446;13.280;2024-03-25T00:33:35;5.50;99.90
26262;DHT22;13988;52.446;13.280;2024-03-25T00:36:00;5.50;99.90
26262;DHT22;13988;52.446;13.280;2024-03-25T00:38:26;5.50;99.90
26262;DHT22;13988;52.446;13.280;2024-03-25T00:40:52;5.50;99.90
26262;DHT22;13988;52.446;13.280;2024-03-25T00:43:18;5.50;99.90
26262;DHT22;13988;52.446;13.280;2024-03-25T00:45:45;5.50;99.90
26262;DHT22;13988;52.446;13.280;2024-03-25T00:48:12;5.50;99.90
26262;DHT22;13988;52.446;13.280;2024-03-25T00:50:37;5.50;99.90
26262;DHT22;13988;52.446;13.280;2024-03-25T00:53:03;5.50;99.90
26262;DHT22;13988;52.446;13.280;2024-03-25T00:55:29;5.50;99.90
26262;DHT22;13988;52.446;13.280;2024-03-25T00:57:54;5.50;99.90
26262;DHT22;13988;52.446;13.280;2024-03-25T01:00:20;5.50;99.90
26262;DHT22;13988;52.446;13.280;2024-03-25T01:02:46;5.50;99.90
26262;DHT22;13988;52.446;13.280;2024-03-25T01:05:12;5.50;99.90
26262;DHT22;13988;52.446;13.280;2024-03-25T01:07:38;5.50;99.90
26262;DHT22;13988;52.446;13.280;2024-03-25T01:10:04;5.60;99.90
26262;DHT22;13988;52.446;13.280;2024-03-25T01:12:31;5.50;99.90
26262;DHT22;13988;52.446;13.280;2024-03-25T01:14:58;5.50;99.90
26262;DHT22;13988;52.446;13.280;2024-03-25T01:17:23;5.50;99.90
26262;DHT22;13988;52.446;13.280;2024-03-25T01:19:49;5.50;99.90
26262;DHT22;13988;52.446;13.280;2024-03-25T01:22:14;5.60;99.90
26262;DHT22;13988;52.446;13.280;2024-03-25T01:24:40;5.50;99.90
26262;DHT22;13988;52.446;13.280;2024-03-25T01:27:05;5.50;99.90
26262;DHT22;13988;52.446;13.280;2024-03-25T01:29:31;5.50;99.90
26262;DHT22;13988;52.446;13.280;2024-03-25T01:31:58;5.50;99.90
26262;DHT22;13988;52.446;13.280;2024-03-25T01:34:25;5.50;99.90
26262;DHT22;13988;52.446;13.280;2024-03-25T01:36:51;5.50;99.90
26262;DHT22;13988;52.446;13.280;2024-03-25T01:39:17;5.40;99.90
26262;DHT22;13988;52.446;13.280;2024-03-25T01:41:44;5.40;99.90
26262;DHT22;13988;52.446;13.280;2024-03-25T01:44:10;5.40;99.90
26262;DHT22;13988;52.446;13.280;2024-03-25T01:46:36;5.40;99.90
26262;DHT22;13988;52.446;13.280;2024-03-25T01:49:03;5.40;99.90
26262;DHT22;13988;52.446;13.280;2024-03-25T01:51:29;5.40;99.90
26262;DHT22;13988;52.446;13.280;2024-03-25T01:53:56;5.30;99.90
26262;DHT22;13988;52.446;13.280;2024-03-25T01:56:23;5.30;99.90
26262;DHT22;13988;52.446;13.280;2024-03-25T01:58:49;5.30;99.90
26262;DHT22;13988;52.446;13.280;2024-03-25T02:01:15;5.30;99.90
26262;DHT22;13988;52.446;13.280;2024-03-25T02:03:44;5.40;99.90
26262;DHT22;13988;52.446;13.280;2024-03-25T02:06:13;5.40;99.90
26262;DHT22;13988;52.446;13.280;2024-03-25T02:08:41;5.40;99.90
26262;DHT22;13988;52.446;13.280;2024-03-25T02:11:07;5.40;99.90
26262;DHT22;13988;52.446;13.280;2024-03-25T02:13:34;5.30;99.90
26262;DHT22;13988;52.446;13.280;2024-03-25T02:16:00;5.40;99.90
26262;DHT22;13988;52.446;13.280;2024-03-25T02:18:26;5.40;99.90
26262;DHT22;13988;52.446;13.280;2024-03-25T02:20:51;5.40;99.90
26262;DHT22;13988;52.446;13.280;2024-03-25T02:23:19;5.40;99.90
26262;DHT22;13988;52.446;13.280;2024-03-25T02:25:49;5.40;99.90
26262;DHT22;13988;52.446;13.280;2024-03-25T02:28:15;5.40;99.90
26262;DHT22;13988;52.446;13.280;2024-03-25T02:30:41;5.40;99.90
26262;DHT22;13988;52.446;13.280;2024-03-25T02:33:07;5.40;99.90
26262;DHT22;13988;52.446;13.280;2024-03-25T02:35:33;5.40;99.90
26262;DHT22;13988;52.446;13.280;2024-03-25T02:37:59;5.40;99.90
26262;DHT22;13988;52.446;13.280;2024-03-25T02:40:25;5.30;99.90
26262;DHT22;13988;52.446;13.280;2024-03-25T02:42:51;5.40;99.90
26262;DHT22;13988;52.446;13.280;2024-03-25T02:45:17;5.30;99.90
26262;DHT22;13988;52.446;13.280;2024-03-25T02:47:43;5.30;99.90
26262;DHT22;13988;52.446;13.280;2024-03-25T02:50:09;5.40;99.90
26262;DHT22;13988;52.446;13.280;2024-03-25T02:52:34;5.30;99.90
26262;DHT22;13988;52.446;13.280;2024-03-25T02:55:00;5.30;99.90
26262;DHT22;13988;52.446;13.280;2024-03-25T02:57:26;5.30;99.90
26262;DHT22;13988;52.446;13.280;2024-03-25T02:59:52;5.30;99.90
26262;DHT22;13988;52.446;13.280;2024-03-25T03:02:17;5.30;99.90
26262;DHT22;13988;52.446;13.280;2024-03-25T03:04:43;5.30;99.90
26262;DHT22;13988;52.446;13.280;2024-03-25T03:07:08;5.30;99.90
26262;DHT22;13988;52.446;13.280;2024-03-25T03:09:35;5.30;99.90
26262;DHT22;13988;52.446;13.280;2024-03-25T03:12:00;5.30;99.90
26262;DHT22;13988;52.446;13.280;2024-03-25T03:14:26;5.30;99.90
26262;DHT22;13988;52.446;13.280;2024-03-25T03:16:51;5.30;99.90
26262;DHT22;13988;52.446;13.280;2024-03-25T03:19:26;5.30;99.90
26262;DHT22;13988;52.446;13.280;2024-03-25T03:21:52;5.30;99.90
26262;DHT22;13988;52.446;13.280;2024-03-25T03:24:18;5.30;99.90
26262;DHT22;13988;52.446;13.280;2024-03-25T03:26:44;5.30;99.90
26262;DHT22;13988;52.446;13.280;2024-03-25T03:29:10;5.20;99.90
26262;DHT22;13988;52.446;13.280;2024-03-25T03:31:36;5.30;99.90
26262;DHT22;13988;52.446;13.280;2024-03-25T03:34:02;5.20;99.90
26262;DHT22;13988;52.446;13.280;2024-03-25T03:36:27;5.30;99.90
26262;DHT22;13988;52.446;13.280;2024-03-25T03:38:53;5.20;99.90
26262;DHT22;13988;52.446;13.280;2024-03-25T03:41:19;5.20;99.90
26262;DHT22;13988;52.446;13.280;2024-03-25T03:43:45;5.30;99.90
26262;DHT22;13988;52.446;13.280;2024-03-25T03:46:11;5.30;99.90
26262;DHT22;13988;52.446;13.280;2024-03-25T03:48:37;5.20;99.90
26262;DHT22;13988;52.446;13.280;2024-03-25T03:51:04;5.20;99.90
26262;DHT22;13988;52.446;13.280;2024-03-25T03:53:30;5.20;99.90
26262;DHT22;13988;52.446;13.280;2024-03-25T03:56:00;5.20;99.90
26262;DHT22;13988;52.446;13.280;2024-03-25T03:58:30;5.20;99.90
26262;DHT22;13988;52.446;13.280;2024-03-25T04:00:56;5.30;99.90
26262;DHT22;13988;52.446;13.280;2024-03-25T04:03:22;5.20;99.90
26262;DHT22;13988;52.446;13.280;2024-03-25T04:05:47;5.20;99.90
26262;DHT22;13988;52.446;13.280;2024-03-25T04:08:13;5.30;99.90
26262;DHT22;13988;52.446;13.280;2024-03-25T04:10:39;5.30;99.90
26262;DHT22;13988;52.446;13.280;2024-03-25T04:13:08;5.20;99.90
26262;DHT22;13988;52.446;13.280;2024-03-25T04:15:37;5.20;99.90
26262;DHT22;13988;52.446;13.280;2024-03-25T04:18:03;5.30;99.90
26262;DHT22;13988;52.446;13.280;2024-03-25T04:20:30;5.30;99.90
26262;DHT22;13988;52.446;13.280;2024-03-25T04:22:56;5.30;99.90
26262;DHT22;13988;52.446;13.280;2024-03-25T04:25:22;5.30;99.90
26262;DHT22;13988;52.446;13.280;2024-03-25T04:27:48;5.30;99.90
26262;DHT22;13988;52.446;13.280;2024-03-25T04:30:14;5.30;99.90
26262;DHT22;13988;52.446;13.280;2024-03-25T04:32:40;5.30;99.90
26262;DHT22;13988;52.446;13.280;2024-03-25T04:35:06;5.30;99.90
26262;DHT22;13988;52.446;13.280;2024-03-25T04:37:33;5.30;99.90
26262;DHT22;13988;52.446;13.280;2024-03-25T04:39:59;5.30;99.90
26262;DHT22;13988;52.446;13.280;2024-03-25T04:42:25;5.30;99.90
26262;DHT22;13988;52.446;13.280;2024-03-25T04:44:52;5.30;99.90
26262;DHT22;13988;52.446;13.280;2024-03-25T04:47:18;5.30;99.90
26262;DHT22;13988;52.446;13.280;2024-03-25T04:49:44;5.30;99.90
26262;DHT22;13988;52.446;13.280;2024-03-25T04:52:11;5.30;99.90
26262;DHT22;13988;52.446;13.280;2024-03-25T04:54:39;5.30;99.90
26262;DHT22;13988;52.446;13.280;2024-03-25T04:57:04;5.30;99.90
26262;DHT22;13988;52.446;13.280;2024-03-25T04:59:31;5.30;99.90
26262;DHT22;13988;52.446;13.280;2024-03-25T05:01:57;5.30;99.90
26262;DHT22;13988;52.446;13.280;2024-03-25T05:04:23;5.30;99.90
26262;DHT22;13988;52.446;13.280;2024-03-25T05:06:50;5.30;99.90
26262;DHT22;13988;52.446;13.280;2024-03-25T05:09:15;5.30;99.90
26262;DHT22;13988;52.446;13.280;2024-03-25T05:11:42;5.30;99.90
26262;DHT22;13988;52.446;13.280;2024-03-25T05:14:07;5.30;99.90
26262;DHT22;13988;52.446;13.280;2024-03-25T05:16:33;5.30;99.90
26262;DHT22;13988;52.446;13.280;2024-03-25T05:18:59;5.30;99.90
26262;DHT22;13988;52.446;13.280;2024-03-25T05:21:24;5.30;99.90
26262;DHT22;13988;52.446;13.280;2024-03-25T05:23:50;5.30;99.90
26262;DHT22;13988;52.446;13.280;2024-03-25T05:26:16;5.30;99.90
26262;DHT22;13988;52.446;13.280;2024-03-25T05:28:41;5.30;99.90
26262;DHT22;13988;52.446;13.280;2024-03-25T05:31:08;5.30;99.90
26262;DHT22;13988;52.446;13.280;2024-03-25T05:33:34;5.30;99.90
26262;DHT22;13988;52.446;13.280;2024-03-25T05:36:00;5.20;99.90
26262;DHT22;13988;52.446;13.280;2024-03-25T05:38:29;5.30;99.90
26262;DHT22;13988;52.446;13.280;2024-03-25T05:40:55;5.20;99.90
26262;DHT22;13988;52.446;13.280;2024-03-25T05:43:21;5.20;99.90
26262;DHT22;13988;52.446;13.280;2024-03-25T05:45:53;5.30;99.90
26262;DHT22;13988;52.446;13.280;2024-03-25T05:48:25;5.30;99.90
26262;DHT22;13988;52.446;13.280;2024-03-25T05:51:04;5.20;99.90
26262;DHT22;13988;52.446;13.280;2024-03-25T05:53:33;5.30;99.90
26262;DHT22;13988;52.446;13.280;2024-03-25T05:56:00;5.30;99.90
26262;DHT22;13988;52.446;13.280;2024-03-25T05:58:26;5.30;99.90
26262;DHT22;13988;52.446;13.280;2024-03-25T06:00:52;5.30;99.90
26262;DHT22;13988;52.446;13.280;2024-03-25T06:03:18;5.30;99.90
26262;DHT22;13988;52.446;13.280;2024-03-25T06:05:44;5.30;99.90
26262;DHT22;13988;52.446;13.280;2024-03-25T06:08:10;5.30;99.90
26262;DHT22;13988;52.446;13.280;2024-03-25T06:10:45;5.30;99.90
26262;DHT22;13988;52.446;13.280;2024-03-25T06:13:11;5.30;99.90
26262;DHT22;13988;52.446;13.280;2024-03-25T06:15:37;5.40;99.90
26262;DHT22;13988;52.446;13.280;2024-03-25T06:18:02;5.40;99.90
26262;DHT22;13988;52.446;13.280;2024-03-25T06:20:28;5.30;99.90
26262;DHT22;13988;52.446;13.280;2024-03-25T06:22:54;5.40;99.90
26262;DHT22;13988;52.446;13.280;2024-03-25T06:25:19;5.30;99.90
26262;DHT22;13988;52.446;13.280;2024-03-25T06:27:45;5.30;99.90
26262;DHT22;13988;52.446;13.280;2024-03-25T06:30:11;5.40;99.90
26262;DHT22;13988;52.446;13.280;2024-03-25T06:32:55;5.30;99.90
26262;DHT22;13988;52.446;13.280;2024-03-25T06:35:39;5.30;99.90
26262;DHT22;13988;52.446;13.280;2024-03-25T06:38:05;5.30;99.90
26262;DHT22;13988;52.446;13.280;2024-03-25T06:40:31;5.40;99.90
26262;DHT22;13988;52.446;13.280;2024-03-25T06:42:57;5.40;99.90
26262;DHT22;13988;52.446;13.280;2024-03-25T06:45:23;5.40;99.90
26262;DHT22;13988;52.446;13.280;2024-03-25T06:47:48;5.40;99.90
26262;DHT22;13988;52.446;13.280;2024-03-25T06:50:14;5.40;99.90
26262;DHT22;13988;52.446;13.280;2024-03-25T06:52:40;5.40;99.90
26262;DHT22;13988;52.446;13.280;2024-03-25T06:55:06;5.40;99.90
26262;DHT22;13988;52.446;13.280;2024-03-25T06:57:32;5.40;99.90
26262;DHT22;13988;52.446;13.280;2024-03-25T06:59:58;5.30;99.90
26262;DHT22;13988;52.446;13.280;2024-03-25T07:02:23;5.30;99.90
26262;DHT22;13988;52.446;13.280;2024-03-25T07:04:49;5.40;99.90
26262;DHT22;13988;52.446;13.280;2024-03-25T07:07:15;5.30;99.90
26262;DHT22;13988;52.446;13.280;2024-03-25T07:09:40;5.40;99.90
26262;DHT22;13988;52.446;13.280;2024-03-25T07:12:07;5.40;99.90
26262;DHT22;13988;52.446;13.280;2024-03-25T07:14:32;5.30;99.90
26262;DHT22;13988;52.446;13.280;2024-03-25T07:16:58;5.40;99.90
26262;DHT22;13988;52.446;13.280;2024-03-25T07:19:24;5.40;99.90
26262;DHT22;13988;52.446;13.280;2024-03-25T07:21:50;5.40;99.90
26262;DHT22;13988;52.446;13.280;2024-03-25T07:24:15;5.40;99.90
26262;DHT22;13988;52.446;13.280;2024-03-25T07:26:41;5.50;99.90
26262;DHT22;13988;52.446;13.280;2024-03-25T07:29:06;5.50;99.90
26262;DHT22;13988;52.446;13.280;2024-03-25T07:31:32;5.50;99.90
26262;DHT22;13988;52.446;13.280;2024-03-25T07:33:58;5.50;99.90
26262;DHT22;13988;52.446;13.280;2024-03-25T07:36:24;5.50;99.90
26262;DHT22;13988;52.446;13.280;2024-03-25T07:38:49;5.50;99.90
26262;DHT22;13988;52.446;13.280;2024-03-25T07:41:15;5.50;99.90
26262;DHT22;13988;52.446;13.280;2024-03-25T07:43:41;5.50;99.90
26262;DHT22;13988;52.446;13.280;2024-03-25T07:46:06;5.60;99.90
26262;DHT22;13988;52.446;13.280;2024-03-25T07:48:32;5.50;99.90
26262;DHT22;13988;52.446;13.280;2024-03-25T07:50:58;5.50;99.90
26262;DHT22;13988;52.446;13.280;2024-03-25T07:53:23;5.50;99.90
26262;DHT22;13988;52.446;13.280;2024-03-25T07:55:49;5.50;99.90
26262;DHT22;13988;52.446;13.280;2024-03-25T07:58:16;5.50;99.90
26262;DHT22;13988;52.446;13.280;2024-03-25T08:00:42;5.60;99.90
26262;DHT22;13988;52.446;13.280;2024-03-25T08:03:07;5.70;99.90
26262;DHT22;13988;52.446;13.280;2024-03-25T08:05:33;5.80;99.90
26262;DHT22;13988;52.446;13.280;2024-03-25T08:07:59;5.80;99.90
26262;DHT22;13988;52.446;13.280;2024-03-25T08:10:25;6.00;99.90
26262;DHT22;13988;52.446;13.280;2024-03-25T08:12:50;6.00;99.90
26262;DHT22;13988;52.446;13.280;2024-03-25T08:15:16;6.00;99.90
26262;DHT22;13988;52.446;13.280;2024-03-25T08:17:42;6.00;99.90
26262;DHT22;13988;52.446;13.280;2024-03-25T08:20:08;6.00;99.90
26262;DHT22;13988;52.446;13.280;2024-03-25T08:22:34;6.00;99.90
26262;DHT22;13988;52.446;13.280;2024-03-25T08:24:59;6.10;99.90
26262;DHT22;13988;52.446;13.280;2024-03-25T08:27:25;6.10;99.90
26262;DHT22;13988;52.446;13.280;2024-03-25T08:29:51;6.20;99.90
26262;DHT22;13988;52.446;13.280;2024-03-25T08:32:19;6.20;99.90
26262;DHT22;13988;52.446;13.280;2024-03-25T08:34:45;6.20;99.90
26262;DHT22;13988;52.446;13.280;2024-03-25T08:37:11;6.10;99.90
26262;DHT22;13988;52.446;13.280;2024-03-25T08:39:36;6.30;99.90
26262;DHT22;13988;52.446;13.280;2024-03-25T08:42:02;6.20;99.90
26262;DHT22;13988;52.446;13.280;2024-03-25T08:44:28;6.20;99.90
26262;DHT22;13988;52.446;13.280;2024-03-25T08:46:54;6.30;99.90
26262;DHT22;13988;52.446;13.280;2024-03-25T08:49:20;6.40;99.90
26262;DHT22;13988;52.446;13.280;2024-03-25T08:51:45;6.30;99.90
26262;DHT22;13988;52.446;13.280;2024-03-25T08:54:11;6.40;99.90
26262;DHT22;13988;52.446;13.280;2024-03-25T08:56:37;6.30;99.90
26262;DHT22;13988;52.446;13.280;2024-03-25T08:59:02;6.30;99.90
26262;DHT22;13988;52.446;13.280;2024-03-25T09:01:28;6.30;99.90
26262;DHT22;13988;52.446;13.280;2024-03-25T09:03:56;6.30;99.90
26262;DHT22;13988;52.446;13.280;2024-03-25T09:06:21;6.40;99.90
26262;DHT22;13988;52.446;13.280;2024-03-25T09:08:47;6.40;99.90
26262;DHT22;13988;52.446;13.280;2024-03-25T09:11:31;6.40;99.90
26262;DHT22;13988;52.446;13.280;2024-03-25T09:13:58;6.50;99.90
26262;DHT22;13988;52.446;13.280;2024-03-25T09:16:23;6.50;99.90
26262;DHT22;13988;52.446;13.280;2024-03-25T09:18:49;6.30;99.90
26262;DHT22;13988;52.446;13.280;2024-03-25T09:21:15;6.30;99.90
26262;DHT22;13988;52.446;13.280;2024-03-25T09:23:40;6.30;99.90
26262;DHT22;13988;52.446;13.280;2024-03-25T09:26:06;6.20;99.90
26262;DHT22;13988;52.446;13.280;2024-03-25T09:28:31;6.20;99.90
26262;DHT22;13988;52.446;13.280;2024-03-25T09:30:57;6.20;99.90
26262;DHT22;13988;52.446;13.280;2024-03-25T09:33:23;6.30;99.90
26262;DHT22;13988;52.446;13.280;2024-03-25T09:35:49;6.30;99.90
26262;DHT22;13988;52.446;13.280;2024-03-25T09:38:15;6.20;99.90
26262;DHT22;13988;52.446;13.280;2024-03-25T09:40:41;6.30;99.90
26262;DHT22;13988;52.446;13.280;2024-03-25T09:43:21;6.20;99.90
26262;DHT22;13988;52.446;13.280;2024-03-25T09:45:49;6.30;99.90
26262;DHT22;13988;52.446;13.280;2024-03-25T09:48:21;6.50;99.90
26262;DHT22;13988;52.446;13.280;2024-03-25T09:50:49;6.80;99.90
26262;DHT22;13988;52.446;13.280;2024-03-25T09:53:15;6.80;99.90
26262;DHT22;13988;52.446;13.280;2024-03-25T09:55:42;7.00;99.90
26262;DHT22;13988;52.446;13.280;2024-03-25T09:58:08;7.20;99.90
26262;DHT22;13988;52.446;13.280;2024-03-25T10:00:34;7.30;99.90
26262;DHT22;13988;52.446;13.280;2024-03-25T10:02:59;7.40;99.90
26262;DHT22;13988;52.446;13.280;2024-03-25T10:05:25;7.60;99.90
26262;DHT22;13988;52.446;13.280;2024-03-25T10:07:50;7.60;99.90
26262;DHT22;13988;52.446;13.280;2024-03-25T10:10:22;7.70;99.90
26262;DHT22;13988;52.446;13.280;2024-03-25T10:12:48;7.90;99.90
26262;DHT22;13988;52.446;13.280;2024-03-25T10:15:17;8.10;99.90
26262;DHT22;13988;52.446;13.280;2024-03-25T10:17:43;8.20;99.90
26262;DHT22;13988;52.446;13.280;2024-03-25T10:20:18;8.00;99.90
26262;DHT22;13988;52.446;13.280;2024-03-25T10:22:45;8.00;99.90
26262;DHT22;13988;52.446;13.280;2024-03-25T10:25:26;8.10;99.90
26262;DHT22;13988;52.446;13.280;2024-03-25T10:27:59;8.10;99.90
26262;DHT22;13988;52.446;13.280;2024-03-25T10:30:26;8.30;99.90
26262;DHT22;13988;52.446;13.280;2024-03-25T10:33:02;8.10;99.90
26262;DHT22;13988;52.446;13.280;2024-03-25T10:35:29;8.30;99.90
26262;DHT22;13988;52.446;13.280;2024-03-25T10:38:00;8.30;99.90
26262;DHT22;13988;52.446;13.280;2024-03-25T10:40:30;8.10;99.90
26262;DHT22;13988;52.446;13.280;2024-03-25T10:45:25;7.80;99.90
26262;DHT22;13988;52.446;13.280;2024-03-25T10:47:55;7.70;99.90
26262;DHT22;13988;52.446;13.280;2024-03-25T10:50:26;7.70;99.90
26262;DHT22;13988;52.446;13.280;2024-03-25T10:52:54;7.70;99.90
26262;DHT22;13988;52.446;13.280;2024-03-25T10:55:20;7.80;99.90
26262;DHT22;13988;52.446;13.280;2024-03-25T10:57:48;7.90;99.90
26262;DHT22;13988;52.446;13.280;2024-03-25T11:00:15;8.00;99.90
26262;DHT22;13988;52.446;13.280;2024-03-25T11:02:42;8.10;99.90
26262;DHT22;13988;52.446;13.280;2024-03-25T11:05:09;8.40;99.90
26262;DHT22;13988;52.446;13.280;2024-03-25T11:07:36;8.60;99.90
26262;DHT22;13988;52.446;13.280;2024-03-25T11:10:05;9.00;99.90
26262;DHT22;13988;52.446;13.280;2024-03-25T11:12:36;8.70;99.90
26262;DHT22;13988;52.446;13.280;2024-03-25T11:15:05;8.50;99.90
26262;DHT22;13988;52.446;13.280;2024-03-25T11:17:32;8.50;99.90
26262;DHT22;13988;52.446;13.280;2024-03-25T11:20:11;8.60;99.90
26262;DHT22;13988;52.446;13.280;2024-03-25T11:22:50;9.30;99.90
26262;DHT22;13988;52.446;13.280;2024-03-25T11:25:17;9.40;99.90
26262;DHT22;13988;52.446;13.280;2024-03-25T11:27:44;9.20;99.90
26262;DHT22;13988;52.446;13.280;2024-03-25T11:30:16;9.10;99.90
26262;DHT22;13988;52.446;13.280;2024-03-25T11:32:54;8.90;99.90
26262;DHT22;13988;52.446;13.280;2024-03-25T11:35:20;8.70;99.90
26262;DHT22;13988;52.446;13.280;2024-03-25T11:37:46;8.50;99.90
26262;DHT22;13988;52.446;13.280;2024-03-25T11:40:13;8.60;99.90
26262;DHT22;13988;52.446;13.280;2024-03-25T11:42:43;8.90;99.90
26262;DHT22;13988;52.446;13.280;2024-03-25T11:45:27;8.90;99.90
26262;DHT22;13988;52.446;13.280;2024-03-25T11:47:53;9.20;99.90
26262;DHT22;13988;52.446;13.280;2024-03-25T11:50:19;9.40;99.90
26262;DHT22;13988;52.446;13.280;2024-03-25T11:52:45;9.40;99.90
26262;DHT22;13988;52.446;13.280;2024-03-25T11:55:16;9.20;99.90
26262;DHT22;13988;52.446;13.280;2024-03-25T11:57:42;9.30;99.90
26262;DHT22;13988;52.446;13.280;2024-03-25T12:00:09;9.30;99.90
26262;DHT22;13988;52.446;13.280;2024-03-25T12:02:43;9.30;99.90
26262;DHT22;13988;52.446;13.280;2024-03-25T12:05:11;9.20;99.90
26262;DHT22;13988;52.446;13.280;2024-03-25T12:07:36;9.20;99.90
26262;DHT22;13988;52.446;13.280;2024-03-25T12:10:02;9.40;99.90
26262;DHT22;13988;52.446;13.280;2024-03-25T12:12:47;9.30;99.90
26262;DHT22;13988;52.446;13.280;2024-03-25T12:15:13;9.20;99.90
26262;DHT22;13988;52.446;13.280;2024-03-25T12:17:39;9.20;99.90
26262;DHT22;13988;52.446;13.280;2024-03-25T12:20:06;9.50;99.90
26262;DHT22;13988;52.446;13.280;2024-03-25T12:22:36;10.00;99.90
26262;DHT22;13988;52.446;13.280;2024-03-25T12:25:04;10.10;99.90
26262;DHT22;13988;52.446;13.280;2024-03-25T12:27:40;11.50;99.90
26262;DHT22;13988;52.446;13.280;2024-03-25T12:30:07;12.20;99.90
26262;DHT22;13988;52.446;13.280;2024-03-25T12:32:37;12.40;99.90
26262;DHT22;13988;52.446;13.280;2024-03-25T12:35:05;11.80;99.90
26262;DHT22;13988;52.446;13.280;2024-03-25T12:37:31;11.20;99.90
26262;DHT22;13988;52.446;13.280;2024-03-25T12:39:57;10.20;99.90
26262;DHT22;13988;52.446;13.280;2024-03-25T12:42:25;10.00;99.90
26262;DHT22;13988;52.446;13.280;2024-03-25T12:44:52;9.40;99.90
26262;DHT22;13988;52.446;13.280;2024-03-25T12:47:18;9.40;99.90
26262;DHT22;13988;52.446;13.280;2024-03-25T12:49:44;9.40;99.90
26262;DHT22;13988;52.446;13.280;2024-03-25T12:52:09;9.50;99.90
26262;DHT22;13988;52.446;13.280;2024-03-25T12:54:35;9.50;99.90
26262;DHT22;13988;52.446;13.280;2024-03-25T12:57:01;9.60;99.90
26262;DHT22;13988;52.446;13.280;2024-03-25T12:59:27;9.60;99.90
26262;DHT22;13988;52.446;13.280;2024-03-25T13:01:53;10.20;99.90
26262;DHT22;13988;52.446;13.280;2024-03-25T13:04:19;11.60;99.90
26262;DHT22;13988;52.446;13.280;2024-03-25T13:06:44;11.30;99.90
26262;DHT22;13988;52.446;13.280;2024-03-25T13:09:11;11.80;99.90
26262;DHT22;13988;52.446;13.280;2024-03-25T13:11:37;11.60;99.90
26262;DHT22;13988;52.446;13.280;2024-03-25T13:14:04;11.10;99.90
26262;DHT22;13988;52.446;13.280;2024-03-25T13:16:32;11.30;99.90
26262;DHT22;13988;52.446;13.280;2024-03-25T13:18:58;11.30;99.90
26262;DHT22;13988;52.446;13.280;2024-03-25T13:21:24;11.70;99.90
26262;DHT22;13988;52.446;13.280;2024-03-25T13:23:51;11.70;99.90
26262;DHT22;13988;52.446;13.280;2024-03-25T13:26:17;11.00;99.90
26262;DHT22;13988;52.446;13.280;2024-03-25T13:28:42;10.40;99.90
26262;DHT22;13988;52.446;13.280;2024-03-25T13:31:08;10.30;99.90
26262;DHT22;13988;52.446;13.280;2024-03-25T13:33:34;10.50;99.90
26262;DHT22;13988;52.446;13.280;2024-03-25T13:36:00;10.80;99.90
26262;DHT22;13988;52.446;13.280;2024-03-25T13:38:25;10.80;99.90
26262;DHT22;13988;52.446;13.280;2024-03-25T13:40:52;10.80;99.90
26262;DHT22;13988;52.446;13.280;2024-03-25T13:43:18;10.60;99.90
26262;DHT22;13988;52.446;13.280;2024-03-25T13:45:48;10.40;99.90
26262;DHT22;13988;52.446;13.280;2024-03-25T13:48:15;10.30;99.90
26262;DHT22;13988;52.446;13.280;2024-03-25T13:50:41;10.50;99.90
26262;DHT22;13988;52.446;13.280;2024-03-25T13:53:08;10.70;99.90
26262;DHT22;13988;52.446;13.280;2024-03-25T13:55:34;10.60;99.90
26262;DHT22;13988;52.446;13.280;2024-03-25T13:58:00;10.60;99.90
26262;DHT22;13988;52.446;13.280;2024-03-25T14:00:25;10.70;99.90
26262;DHT22;13988;52.446;13.280;2024-03-25T14:02:54;10.80;99.90
26262;DHT22;13988;52.446;13.280;2024-03-25T14:05:23;11.20;99.90
26262;DHT22;13988;52.446;13.280;2024-03-25T14:07:49;10.90;99.90
26262;DHT22;13988;52.446;13.280;2024-03-25T14:10:15;10.90;99.90
26262;DHT22;13988;52.446;13.280;2024-03-25T14:12:42;10.40;99.90
26262;DHT22;13988;52.446;13.280;2024-03-25T14:15:08;10.30;99.90
26262;DHT22;13988;52.446;13.280;2024-03-25T14:17:34;10.30;99.90
26262;DHT22;13988;52.446;13.280;2024-03-25T14:19:59;10.50;99.90
26262;DHT22;13988;52.446;13.280;2024-03-25T14:22:25;10.40;99.90
26262;DHT22;13988;52.446;13.280;2024-03-25T14:24:51;10.10;99.90
26262;DHT22;13988;52.446;13.280;2024-03-25T14:27:22;9.90;99.90
26262;DHT22;13988;52.446;13.280;2024-03-25T14:29:47;9.90;99.90
26262;DHT22;13988;52.446;13.280;2024-03-25T14:32:13;9.40;99.90
26262;DHT22;13988;52.446;13.280;2024-03-25T14:34:39;9.40;99.90
26262;DHT22;13988;52.446;13.280;2024-03-25T14:37:04;9.30;99.90
26262;DHT22;13988;52.446;13.280;2024-03-25T14:39:30;9.40;99.90
26262;DHT22;13988;52.446;13.280;2024-03-25T14:41:56;9.40;99.90
26262;DHT22;13988;52.446;13.280;2024-03-25T14:44:22;9.20;99.90
26262;DHT22;13988;52.446;13.280;2024-03-25T14:46:47;9.10;99.90
26262;DHT22;13988;52.446;13.280;2024-03-25T14:49:13;9.00;99.90
26262;DHT22;13988;52.446;13.280;2024-03-25T14:51:38;9.10;99.90
26262;DHT22;13988;52.446;13.280;2024-03-25T14:54:05;9.00;99.90
26262;DHT22;13988;52.446;13.280;2024-03-25T14:56:32;9.00;99.90
26262;DHT22;13988;52.446;13.280;2024-03-25T14:58:58;8.80;99.90
26262;DHT22;13988;52.446;13.280;2024-03-25T15:01:24;8.80;99.90
26262;DHT22;13988;52.446;13.280;2024-03-25T15:03:50;8.80;99.90
26262;DHT22;13988;52.446;13.280;2024-03-25T15:06:16;8.70;99.90
26262;DHT22;13988;52.446;13.280;2024-03-25T15:08:41;8.50;99.90
26262;DHT22;13988;52.446;13.280;2024-03-25T15:11:07;8.40;99.90
26262;DHT22;13988;52.446;13.280;2024-03-25T15:13:35;8.10;99.90
26262;DHT22;13988;52.446;13.280;2024-03-25T15:16:04;7.60;99.90
26262;DHT22;13988;52.446;13.280;2024-03-25T15:18:29;7.40;99.90
26262;DHT22;13988;52.446;13.280;2024-03-25T15:21:02;7.50;99.90
26262;DHT22;13988;52.446;13.280;2024-03-25T15:23:28;7.10;99.90
26262;DHT22;13988;52.446;13.280;2024-03-25T15:25:54;7.10;99.90
26262;DHT22;13988;52.446;13.280;2024-03-25T15:28:20;7.10;99.90
26262;DHT22;13988;52.446;13.280;2024-03-25T15:30:46;6.90;99.90